sensor_id;sensor_type;location;lat;lon;timestamp;pressure;altitude;pressure_sealevel;temperature;humidity
35647;BME280;28680;45.642;13.756;2022-07-29T00:09:28;100996.69;;;26.88;100.00
35647;BME280;28680;45.642;13.756;2022-07-29T00:15:28;100992.16;;;26.88;100.00
35647;BME280;28680;45.642;13.756;2022-07-29T00:23:01;100994.00;;;26.88;100.00
35647;BME280;28680;45.642;13.756;2022-07-29T00:39:15;100978.91;;;26.87;100.00
35647;BME280;28680;45.642;13.756;2022-07-29T00:59:47;100965.53;;;26.48;100.00
35647;BME280;28680;45.642;13.756;2022-07-29T01:05:54;100957.22;;;26.56;100.00
35647;BME280;28680;45.642;13.756;2022-07-29T01:08:39;100956.38;;;26.56;100.00
35647;BME280;28680;45.642;13.756;2022-07-29T02:00:58;100954.34;;;26.26;100.00
35647;BME280;28680;45.642;13.756;2022-07-29T02:03:26;100949.63;;;26.21;100.00
35647;BME280;28680;45.642;13.756;2022-07-29T02:05:53;100950.31;;;26.10;100.00
35647;BME280;28680;45.642;13.756;2022-07-29T02:08:24;100951.78;;;26.13;100.00
35647;BME280;28680;45.642;13.756;2022-07-29T02:10:52;100948.09;;;26.07;100.00
35647;BME280;28680;45.642;13.756;2022-07-29T02:13:44;100949.72;;;26.08;100.00
35647;BME280;28680;45.642;13.756;2022-07-29T02:16:55;100948.84;;;26.14;100.00
35647;BME280;28680;45.642;13.756;2022-07-29T02:19:23;100951.91;;;26.18;100.00
35647;BME280;28680;45.642;13.756;2022-07-29T02:21:59;100952.63;;;26.06;100.00
35647;BME280;28680;45.642;13.756;2022-07-29T02:24:58;100944.94;;;26.10;100.00
35647;BME280;28680;45.642;13.756;2022-07-29T03:28:12;100927.66;;;25.99;100.00
35647;BME280;28680;45.642;13.756;2022-07-29T03:33:13;100919.22;;;25.96;100.00
35647;BME280;28680;45.642;13.756;2022-07-29T03:53:35;100875.13;;;25.97;100.00
35647;BME280;28680;45.642;13.756;2022-07-29T03:56:06;100866.56;;;26.06;100.00
35647;BME280;28680;45.642;13.756;2022-07-29T04:02:10;100841.53;;;26.06;100.00
35647;BME280;28680;45.642;13.756;2022-07-29T04:05:02;100839.56;;;25.95;100.00
35647;BME280;28680;45.642;13.756;2022-07-29T04:07:28;100853.06;;;25.88;100.00
35647;BME280;28680;45.642;13.756;2022-07-29T04:16:13;100886.16;;;25.82;100.00
35647;BME280;28680;45.642;13.756;2022-07-29T04:18:39;100897.38;;;25.79;100.00
35647;BME280;28680;45.642;13.756;2022-07-29T04:21:05;100909.16;;;25.78;100.00
35647;BME280;28680;45.642;13.756;2022-07-29T04:23:30;100920.09;;;25.76;100.00
35647;BME280;28680;45.642;13.756;2022-07-29T04:26:02;100918.69;;;25.74;100.00
35647;BME280;28680;45.642;13.756;2022-07-29T04:28:51;100917.16;;;25.53;100.00
35647;BME280;28680;45.642;13.756;2022-07-29T04:31:44;100917.47;;;25.70;100.00
35647;BME280;28680;45.642;13.756;2022-07-29T04:34:11;100916.78;;;25.81;100.00
35647;BME280;28680;45.642;13.756;2022-07-29T04:36:43;100917.38;;;25.83;100.00
35647;BME280;28680;45.642;13.756;2022-07-29T04:39:09;100914.84;;;25.95;100.00
35647;BME280;28680;45.642;13.756;2022-07-29T04:41:35;100911.94;;;25.96;100.00
35647;BME280;28680;45.642;13.756;2022-07-29T04:44:02;100921.66;;;25.97;100.00
35647;BME280;28680;45.642;13.756;2022-07-29T04:46:31;100921.00;;;26.02;100.00
35647;BME280;28680;45.642;13.756;2022-07-29T04:51:53;100922.78;;;26.15;100.00
35647;BME280;28680;45.642;13.756;2022-07-29T04:54:19;100921.72;;;26.16;100.00
35647;BME280;28680;45.642;13.756;2022-07-29T04:56:45;100916.53;;;26.21;100.00
35647;BME280;28680;45.642;13.756;2022-07-29T05:02:53;100927.06;;;26.22;100.00
35647;BME280;28680;45.642;13.756;2022-07-29T05:20:17;100944.59;;;26.32;100.00
35647;BME280;28680;45.642;13.756;2022-07-29T05:26:27;100951.59;;;26.33;100.00
35647;BME280;28680;45.642;13.756;2022-07-29T05:29:11;100948.09;;;26.32;100.00
35647;BME280;28680;45.642;13.756;2022-07-29T05:31:37;100950.78;;;26.32;100.00
35647;BME280;28680;45.642;13.756;2022-07-29T05:34:03;100949.13;;;26.31;100.00
35647;BME280;28680;45.642;13.756;2022-07-29T05:36:35;100949.50;;;26.35;100.00
35647;BME280;28680;45.642;13.756;2022-07-29T05:39:16;100960.44;;;26.40;100.00
35647;BME280;28680;45.642;13.756;2022-07-29T05:41:42;100955.84;;;26.47;100.00
35647;BME280;28680;45.642;13.756;2022-07-29T05:44:11;100951.06;;;26.49;100.00
35647;BME280;28680;45.642;13.756;2022-07-29T06:00:30;100969.13;;;26.92;100.00
35647;BME280;28680;45.642;13.756;2022-07-29T06:06:37;100982.06;;;27.02;100.00
35647;BME280;28680;45.642;13.756;2022-07-29T06:21:44;100999.22;;;27.45;100.00
35647;BME280;28680;45.642;13.756;2022-07-29T06:24:14;100994.88;;;27.62;100.00
35647;BME280;28680;45.642;13.756;2022-07-29T06:26:41;101005.47;;;27.75;100.00
35647;BME280;28680;45.642;13.756;2022-07-29T06:29:09;101005.84;;;27.79;100.00
35647;BME280;28680;45.642;13.756;2022-07-29T06:31:36;101004.19;;;27.78;100.00
35647;BME280;28680;45.642;13.756;2022-07-29T06:34:03;101007.97;;;27.77;100.00
35647;BME280;28680;45.642;13.756;2022-07-29T06:36:35;101005.25;;;27.77;100.00
35647;BME280;28680;45.642;13.756;2022-07-29T06:39:05;101007.84;;;27.84;100.00
35647;BME280;28680;45.642;13.756;2022-07-29T06:41:31;101009.97;;;27.81;100.00
35647;BME280;28680;45.642;13.756;2022-07-29T06:43:57;101017.22;;;27.81;100.00
35647;BME280;28680;45.642;13.756;2022-07-29T06:47:10;101019.56;;;27.77;100.00
35647;BME280;28680;45.642;13.756;2022-07-29T07:07:20;101021.53;;;27.52;100.00
35647;BME280;28680;45.642;13.756;2022-07-29T07:09:46;101019.25;;;27.67;100.00
35647;BME280;28680;45.642;13.756;2022-07-29T07:12:11;101020.03;;;27.56;100.00
35647;BME280;28680;45.642;13.756;2022-07-29T07:20:21;101028.03;;;27.63;100.00
35647;BME280;28680;45.642;13.756;2022-07-29T07:22:47;101023.03;;;27.66;100.00
35647;BME280;28680;45.642;13.756;2022-07-29T07:33:55;101021.28;;;28.21;100.00
35647;BME280;28680;45.642;13.756;2022-07-29T07:36:21;101031.13;;;28.27;100.00
35647;BME280;28680;45.642;13.756;2022-07-29T07:38:47;101025.19;;;28.48;100.00
35647;BME280;28680;45.642;13.756;2022-07-29T07:41:13;101019.50;;;28.68;100.00
35647;BME280;28680;45.642;13.756;2022-07-29T07:44:00;101024.06;;;28.91;100.00
35647;BME280;28680;45.642;13.756;2022-07-29T07:46:28;101025.94;;;29.03;100.00
35647;BME280;28680;45.642;13.756;2022-07-29T07:48:59;101017.63;;;29.16;100.00
35647;BME280;28680;45.642;13.756;2022-07-29T07:51:31;101026.88;;;29.32;100.00
35647;BME280;28680;45.642;13.756;2022-07-29T07:53:57;101020.16;;;29.46;100.00
35647;BME280;28680;45.642;13.756;2022-07-29T07:56:25;101020.84;;;29.53;100.00
35647;BME280;28680;45.642;13.756;2022-07-29T08:01:28;101024.66;;;29.69;100.00
35647;BME280;28680;45.642;13.756;2022-07-29T08:03:53;101026.78;;;29.67;100.00
35647;BME280;28680;45.642;13.756;2022-07-29T08:06:19;101034.81;;;29.74;100.00
35647;BME280;28680;45.642;13.756;2022-07-29T08:08:45;101030.31;;;29.80;100.00
35647;BME280;28680;45.642;13.756;2022-07-29T08:11:14;101022.25;;;29.97;100.00
35647;BME280;28680;45.642;13.756;2022-07-29T08:13:43;101020.19;;;30.04;100.00
35647;BME280;28680;45.642;13.756;2022-07-29T08:16:12;101007.66;;;30.15;100.00
35647;BME280;28680;45.642;13.756;2022-07-29T08:18:43;101012.69;;;30.23;100.00
35647;BME280;28680;45.642;13.756;2022-07-29T08:21:15;101020.88;;;30.28;100.00
35647;BME280;28680;45.642;13.756;2022-07-29T08:23:44;101017.03;;;30.24;100.00
35647;BME280;28680;45.642;13.756;2022-07-29T08:26:16;101024.91;;;30.25;100.00
35647;BME280;28680;45.642;13.756;2022-07-29T08:28:43;101021.81;;;30.34;100.00
35647;BME280;28680;45.642;13.756;2022-07-29T08:31:12;101022.97;;;30.38;100.00
35647;BME280;28680;45.642;13.756;2022-07-29T08:33:38;101021.72;;;30.45;100.00
35647;BME280;28680;45.642;13.756;2022-07-29T08:36:05;101026.09;;;30.46;100.00
35647;BME280;28680;45.642;13.756;2022-07-29T08:38:32;101029.63;;;30.47;100.00
35647;BME280;28680;45.642;13.756;2022-07-29T08:41:01;101034.22;;;30.46;100.00
35647;BME280;28680;45.642;13.756;2022-07-29T08:43:30;101034.22;;;30.46;100.00
35647;BME280;28680;45.642;13.756;2022-07-29T08:45:57;101033.06;;;30.42;100.00
35647;BME280;28680;45.642;13.756;2022-07-29T08:48:24;101040.31;;;30.54;100.00
35647;BME280;28680;45.642;13.756;2022-07-29T08:50:54;101029.78;;;30.74;100.00
35647;BME280;28680;45.642;13.756;2022-07-29T09:07:03;101025.22;;;32.02;100.00
35647;BME280;28680;45.642;13.756;2022-07-29T09:09:55;101038.78;;;32.02;100.00
35647;BME280;28680;45.642;13.756;2022-07-29T09:12:29;101031.53;;;31.85;100.00
35647;BME280;28680;45.642;13.756;2022-07-29T09:15:26;101022.69;;;31.95;100.00
35647;BME280;28680;45.642;13.756;2022-07-29T09:17:52;101028.22;;;32.05;100.00
35647;BME280;28680;45.642;13.756;2022-07-29T09:20:21;101026.53;;;31.99;100.00
35647;BME280;28680;45.642;13.756;2022-07-29T09:23:08;101025.56;;;32.11;100.00
35647;BME280;28680;45.642;13.756;2022-07-29T09:26:00;101025.66;;;32.21;100.00
35647;BME280;28680;45.642;13.756;2022-07-29T09:28:30;101015.63;;;32.54;100.00
35647;BME280;28680;45.642;13.756;2022-07-29T09:30:58;101018.59;;;32.90;100.00
35647;BME280;28680;45.642;13.756;2022-07-29T09:33:32;101022.31;;;33.21;100.00
35647;BME280;28680;45.642;13.756;2022-07-29T09:36:07;101013.34;;;33.20;100.00
35647;BME280;28680;45.642;13.756;2022-07-29T09:38:34;101016.44;;;33.45;100.00
35647;BME280;28680;45.642;13.756;2022-07-29T09:41:04;101013.91;;;33.28;100.00
35647;BME280;28680;45.642;13.756;2022-07-29T09:43:30;101011.44;;;33.21;100.00
35647;BME280;28680;45.642;13.756;2022-07-29T09:46:13;101005.78;;;33.33;100.00
35647;BME280;28680;45.642;13.756;2022-07-29T09:48:39;101011.13;;;33.17;100.00
35647;BME280;28680;45.642;13.756;2022-07-29T09:51:05;101013.41;;;33.36;100.00
35647;BME280;28680;45.642;13.756;2022-07-29T09:53:35;101021.56;;;33.36;100.00
35647;BME280;28680;45.642;13.756;2022-07-29T09:56:03;101026.72;;;33.27;100.00
35647;BME280;28680;45.642;13.756;2022-07-29T09:58:29;101019.97;;;33.45;100.00
35647;BME280;28680;45.642;13.756;2022-07-29T10:00:56;101024.53;;;33.34;100.00
35647;BME280;28680;45.642;13.756;2022-07-29T10:03:23;101022.91;;;33.33;100.00
35647;BME280;28680;45.642;13.756;2022-07-29T10:06:10;101014.50;;;33.40;100.00
35647;BME280;28680;45.642;13.756;2022-07-29T10:08:38;101014.22;;;33.36;100.00
35647;BME280;28680;45.642;13.756;2022-07-29T10:11:13;101017.28;;;33.50;100.00
35647;BME280;28680;45.642;13.756;2022-07-29T10:13:41;101020.91;;;33.87;100.00
35647;BME280;28680;45.642;13.756;2022-07-29T10:16:07;101022.34;;;34.20;100.00
35647;BME280;28680;45.642;13.756;2022-07-29T10:18:34;101023.97;;;34.42;100.00
35647;BME280;28680;45.642;13.756;2022-07-29T10:21:01;101016.63;;;34.37;100.00
35647;BME280;28680;45.642;13.756;2022-07-29T10:23:31;101027.19;;;34.03;100.00
35647;BME280;28680;45.642;13.756;2022-07-29T10:25:57;101014.38;;;33.77;100.00
35647;BME280;28680;45.642;13.756;2022-07-29T10:28:23;101017.34;;;33.76;100.00
35647;BME280;28680;45.642;13.756;2022-07-29T10:30:52;101019.03;;;33.92;100.00
35647;BME280;28680;45.642;13.756;2022-07-29T10:42:24;100989.91;;;34.13;100.00
35647;BME280;28680;45.642;13.756;2022-07-29T10:44:51;101000.53;;;33.99;100.00
35647;BME280;28680;45.642;13.756;2022-07-29T10:47:25;100985.88;;;34.16;100.00
35647;BME280;28680;45.642;13.756;2022-07-29T10:50:04;100978.72;;;34.61;100.00
35647;BME280;28680;45.642;13.756;2022-07-29T10:55:35;100976.53;;;34.63;100.00
35647;BME280;28680;45.642;13.756;2022-07-29T10:58:22;100976.56;;;34.58;100.00
35647;BME280;28680;45.642;13.756;2022-07-29T11:00:53;100978.22;;;34.33;100.00
35647;BME280;28680;45.642;13.756;2022-07-29T11:03:47;100976.03;;;34.51;100.00
35647;BME280;28680;45.642;13.756;2022-07-29T11:06:13;100982.47;;;34.96;100.00
35647;BME280;28680;45.642;13.756;2022-07-29T11:08:41;100971.22;;;35.13;100.00
35647;BME280;28680;45.642;13.756;2022-07-29T11:13:47;100970.41;;;35.23;100.00
35647;BME280;28680;45.642;13.756;2022-07-29T11:16:16;100975.66;;;34.99;100.00
35647;BME280;28680;45.642;13.756;2022-07-29T11:21:42;100969.06;;;35.05;100.00
35647;BME280;28680;45.642;13.756;2022-07-29T11:24:13;100964.84;;;35.38;100.00
35647;BME280;28680;45.642;13.756;2022-07-29T11:26:40;100966.25;;;35.36;100.00
35647;BME280;28680;45.642;13.756;2022-07-29T11:29:19;100964.38;;;35.26;100.00
35647;BME280;28680;45.642;13.756;2022-07-29T11:31:51;100965.28;;;35.01;100.00
35647;BME280;28680;45.642;13.756;2022-07-29T11:47:49;100965.53;;;35.09;98.79
35647;BME280;28680;45.642;13.756;2022-07-29T11:50:34;100960.63;;;35.61;97.07
35647;BME280;28680;45.642;13.756;2022-07-29T11:53:09;100961.88;;;35.29;96.87
35647;BME280;28680;45.642;13.756;2022-07-29T11:55:38;100966.31;;;35.15;98.08
35647;BME280;28680;45.642;13.756;2022-07-29T11:58:06;100962.22;;;35.72;97.81
35647;BME280;28680;45.642;13.756;2022-07-29T12:00:36;100953.50;;;35.65;95.95
35647;BME280;28680;45.642;13.756;2022-07-29T12:03:06;100959.50;;;35.67;90.74
35647;BME280;28680;45.642;13.756;2022-07-29T12:05:38;100951.97;;;35.49;92.12
35647;BME280;28680;45.642;13.756;2022-07-29T12:08:10;100959.09;;;36.53;99.82
35647;BME280;28680;45.642;13.756;2022-07-29T12:10:37;100960.38;;;37.09;94.91
35647;BME280;28680;45.642;13.756;2022-07-29T12:13:04;100961.59;;;37.22;90.66
35647;BME280;28680;45.642;13.756;2022-07-29T12:15:30;100961.00;;;37.25;97.46
35647;BME280;28680;45.642;13.756;2022-07-29T12:17:56;100952.34;;;37.37;90.18
35647;BME280;28680;45.642;13.756;2022-07-29T12:22:50;100952.03;;;36.18;93.46
35647;BME280;28680;45.642;13.756;2022-07-29T12:25:16;100953.31;;;35.96;98.54
35647;BME280;28680;45.642;13.756;2022-07-29T12:27:44;100949.53;;;35.92;97.77
35647;BME280;28680;45.642;13.756;2022-07-29T12:30:16;100957.03;;;35.71;95.64
35647;BME280;28680;45.642;13.756;2022-07-29T12:32:47;100955.53;;;36.53;100.00
35647;BME280;28680;45.642;13.756;2022-07-29T12:35:18;100948.13;;;36.29;96.74
35647;BME280;28680;45.642;13.756;2022-07-29T12:37:46;100942.50;;;36.15;93.59
35647;BME280;28680;45.642;13.756;2022-07-29T12:40:16;100953.00;;;36.32;100.00
35647;BME280;28680;45.642;13.756;2022-07-29T12:45:47;100948.03;;;37.12;95.01
35647;BME280;28680;45.642;13.756;2022-07-29T12:48:14;100947.63;;;37.42;96.19
35647;BME280;28680;45.642;13.756;2022-07-29T12:51:00;100944.06;;;37.80;94.77
35647;BME280;28680;45.642;13.756;2022-07-29T12:53:27;100946.81;;;37.42;95.41
35647;BME280;28680;45.642;13.756;2022-07-29T12:55:55;100944.59;;;37.01;95.03
35647;BME280;28680;45.642;13.756;2022-07-29T12:58:39;100937.59;;;36.71;96.42
35647;BME280;28680;45.642;13.756;2022-07-29T13:01:12;100948.72;;;36.50;98.79
35647;BME280;28680;45.642;13.756;2022-07-29T13:03:54;100938.63;;;36.75;100.00
35647;BME280;28680;45.642;13.756;2022-07-29T13:06:44;100936.03;;;36.59;97.81
35647;BME280;28680;45.642;13.756;2022-07-29T13:09:13;100934.84;;;36.95;99.54
35647;BME280;28680;45.642;13.756;2022-07-29T13:11:47;100936.16;;;37.59;94.08
35647;BME280;28680;45.642;13.756;2022-07-29T13:19:49;100935.06;;;36.98;95.64
35647;BME280;28680;45.642;13.756;2022-07-29T13:22:19;100930.03;;;36.86;95.91
35647;BME280;28680;45.642;13.756;2022-07-29T13:25:00;100934.91;;;36.65;100.00
35647;BME280;28680;45.642;13.756;2022-07-29T13:27:32;100928.44;;;36.56;97.00
35647;BME280;28680;45.642;13.756;2022-07-29T13:30:00;100927.72;;;36.45;98.14
35647;BME280;28680;45.642;13.756;2022-07-29T13:32:28;100916.75;;;36.51;98.19
35647;BME280;28680;45.642;13.756;2022-07-29T13:34:59;100917.69;;;36.89;99.68
35647;BME280;28680;45.642;13.756;2022-07-29T13:37:26;100919.06;;;37.49;98.79
35647;BME280;28680;45.642;13.756;2022-07-29T13:39:56;100914.41;;;37.68;94.00
35647;BME280;28680;45.642;13.756;2022-07-29T13:42:23;100910.66;;;37.97;90.72
35647;BME280;28680;45.642;13.756;2022-07-29T13:44:50;100913.31;;;38.02;89.29
35647;BME280;28680;45.642;13.756;2022-07-29T13:47:21;100893.06;;;38.45;86.66
35647;BME280;28680;45.642;13.756;2022-07-29T13:49:48;100898.75;;;38.62;84.50
35647;BME280;28680;45.642;13.756;2022-07-29T13:52:15;100889.19;;;38.32;85.34
35647;BME280;28680;45.642;13.756;2022-07-29T13:54:42;100889.25;;;37.99;88.34
35647;BME280;28680;45.642;13.756;2022-07-29T13:57:09;100879.53;;;38.20;89.72
35647;BME280;28680;45.642;13.756;2022-07-29T13:59:42;100877.41;;;38.45;86.62
35647;BME280;28680;45.642;13.756;2022-07-29T14:02:10;100872.16;;;38.21;83.17
35647;BME280;28680;45.642;13.756;2022-07-29T14:04:39;100869.63;;;38.38;79.17
35647;BME280;28680;45.642;13.756;2022-07-29T14:07:05;100865.63;;;38.86;76.32
35647;BME280;28680;45.642;13.756;2022-07-29T14:09:32;100864.69;;;39.05;73.88
35647;BME280;28680;45.642;13.756;2022-07-29T14:11:57;100861.91;;;39.18;68.75
35647;BME280;28680;45.642;13.756;2022-07-29T14:14:23;100852.19;;;38.98;70.33
35647;BME280;28680;45.642;13.756;2022-07-29T14:16:49;100850.66;;;38.92;72.83
35647;BME280;28680;45.642;13.756;2022-07-29T14:19:18;100843.75;;;39.09;70.18
35647;BME280;28680;45.642;13.756;2022-07-29T14:21:43;100846.81;;;38.93;77.01
35647;BME280;28680;45.642;13.756;2022-07-29T14:24:09;100844.66;;;38.54;80.90
35647;BME280;28680;45.642;13.756;2022-07-29T14:26:35;100843.22;;;38.15;82.28
35647;BME280;28680;45.642;13.756;2022-07-29T14:29:01;100843.91;;;38.20;82.64
35647;BME280;28680;45.642;13.756;2022-07-29T14:31:27;100846.41;;;38.03;82.74
35647;BME280;28680;45.642;13.756;2022-07-29T14:33:53;100845.78;;;38.11;81.02
35647;BME280;28680;45.642;13.756;2022-07-29T14:36:19;100847.69;;;38.25;72.42
35647;BME280;28680;45.642;13.756;2022-07-29T14:38:44;100838.28;;;38.58;72.24
35647;BME280;28680;45.642;13.756;2022-07-29T14:41:11;100840.03;;;38.91;70.71
35647;BME280;28680;45.642;13.756;2022-07-29T14:43:37;100845.31;;;38.73;68.78
35647;BME280;28680;45.642;13.756;2022-07-29T14:46:03;100850.41;;;38.52;69.24
35647;BME280;28680;45.642;13.756;2022-07-29T14:48:29;100848.31;;;38.49;70.87
35647;BME280;28680;45.642;13.756;2022-07-29T14:50:55;100844.94;;;38.52;68.59
35647;BME280;28680;45.642;13.756;2022-07-29T14:53:22;100848.91;;;38.60;72.86
35647;BME280;28680;45.642;13.756;2022-07-29T14:55:48;100851.22;;;38.39;74.86
35647;BME280;28680;45.642;13.756;2022-07-29T14:58:14;100836.31;;;38.17;72.33
35647;BME280;28680;45.642;13.756;2022-07-29T15:00:41;100846.00;;;37.82;75.50
35647;BME280;28680;45.642;13.756;2022-07-29T15:03:07;100850.47;;;37.59;74.54
35647;BME280;28680;45.642;13.756;2022-07-29T15:05:35;100839.56;;;37.40;71.38
35647;BME280;28680;45.642;13.756;2022-07-29T15:08:02;100831.69;;;37.52;65.83
35647;BME280;28680;45.642;13.756;2022-07-29T15:10:29;100837.38;;;37.56;65.27
35647;BME280;28680;45.642;13.756;2022-07-29T15:12:56;100830.31;;;37.36;65.03
35647;BME280;28680;45.642;13.756;2022-07-29T15:15:22;100830.38;;;37.12;73.17
35647;BME280;28680;45.642;13.756;2022-07-29T15:17:48;100831.50;;;36.92;64.87
35647;BME280;28680;45.642;13.756;2022-07-29T15:20:14;100833.06;;;36.79;74.74
35647;BME280;28680;45.642;13.756;2022-07-29T15:22:40;100830.03;;;36.56;75.59
35647;BME280;28680;45.642;13.756;2022-07-29T15:25:07;100818.13;;;36.47;77.18
35647;BME280;28680;45.642;13.756;2022-07-29T15:27:34;100826.63;;;36.45;75.65
35647;BME280;28680;45.642;13.756;2022-07-29T15:30:00;100830.56;;;36.34;81.46
35647;BME280;28680;45.642;13.756;2022-07-29T15:32:26;100830.88;;;36.33;86.82
35647;BME280;28680;45.642;13.756;2022-07-29T15:34:52;100811.66;;;36.14;89.93
35647;BME280;28680;45.642;13.756;2022-07-29T15:37:17;100811.66;;;36.14;87.98
35647;BME280;28680;45.642;13.756;2022-07-29T15:39:43;100806.53;;;36.07;84.26
35647;BME280;28680;45.642;13.756;2022-07-29T15:42:09;100799.44;;;36.06;81.06
35647;BME280;28680;45.642;13.756;2022-07-29T15:44:35;100804.06;;;35.81;77.06
35647;BME280;28680;45.642;13.756;2022-07-29T15:47:01;100805.81;;;35.72;83.24
35647;BME280;28680;45.642;13.756;2022-07-29T15:49:41;100807.59;;;35.52;76.57
35647;BME280;28680;45.642;13.756;2022-07-29T15:52:09;100808.63;;;35.57;84.04
35647;BME280;28680;45.642;13.756;2022-07-29T15:54:38;100808.50;;;35.43;77.07
35647;BME280;28680;45.642;13.756;2022-07-29T15:57:05;100800.31;;;35.43;79.50
35647;BME280;28680;45.642;13.756;2022-07-29T15:59:32;100812.22;;;35.52;76.40
35647;BME280;28680;45.642;13.756;2022-07-29T16:02:00;100812.06;;;35.38;76.91
35647;BME280;28680;45.642;13.756;2022-07-29T16:04:27;100813.06;;;35.18;80.31
35647;BME280;28680;45.642;13.756;2022-07-29T16:06:53;100796.81;;;34.92;82.35
35647;BME280;28680;45.642;13.756;2022-07-29T16:09:19;100799.78;;;34.96;82.42
35647;BME280;28680;45.642;13.756;2022-07-29T16:11:45;100802.38;;;34.72;85.36
35647;BME280;28680;45.642;13.756;2022-07-29T16:14:13;100802.09;;;34.73;89.13
35647;BME280;28680;45.642;13.756;2022-07-29T16:16:39;100801.31;;;34.68;89.36
35647;BME280;28680;45.642;13.756;2022-07-29T16:19:06;100801.03;;;34.69;89.00
35647;BME280;28680;45.642;13.756;2022-07-29T16:21:35;100798.91;;;34.51;91.99
35647;BME280;28680;45.642;13.756;2022-07-29T16:24:02;100796.47;;;34.49;92.26
35647;BME280;28680;45.642;13.756;2022-07-29T16:26:28;100790.28;;;34.33;93.75
35647;BME280;28680;45.642;13.756;2022-07-29T16:28:54;100792.22;;;34.23;95.09
35647;BME280;28680;45.642;13.756;2022-07-29T16:31:20;100791.13;;;34.18;96.07
35647;BME280;28680;45.642;13.756;2022-07-29T16:33:51;100798.78;;;34.16;97.51
35647;BME280;28680;45.642;13.756;2022-07-29T16:36:18;100804.72;;;34.08;100.00
35647;BME280;28680;45.642;13.756;2022-07-29T16:38:45;100800.44;;;33.82;95.70
35647;BME280;28680;45.642;13.756;2022-07-29T16:41:11;100809.41;;;33.92;96.74
35647;BME280;28680;45.642;13.756;2022-07-29T16:43:37;100811.06;;;33.93;93.34
35647;BME280;28680;45.642;13.756;2022-07-29T16:46:06;100815.88;;;34.12;95.34
35647;BME280;28680;45.642;13.756;2022-07-29T16:48:33;100820.00;;;34.09;91.91
35647;BME280;28680;45.642;13.756;2022-07-29T16:50:59;100819.47;;;34.07;93.77
35647;BME280;28680;45.642;13.756;2022-07-29T16:53:25;100819.75;;;33.80;91.45
35647;BME280;28680;45.642;13.756;2022-07-29T16:55:50;100820.59;;;33.75;94.54
35647;BME280;28680;45.642;13.756;2022-07-29T16:58:16;100823.59;;;33.84;94.37
35647;BME280;28680;45.642;13.756;2022-07-29T17:00:42;100822.22;;;33.82;94.92
35647;BME280;28680;45.642;13.756;2022-07-29T17:03:08;100818.13;;;33.58;98.92
35647;BME280;28680;45.642;13.756;2022-07-29T17:05:34;100821.94;;;33.37;100.00
35647;BME280;28680;45.642;13.756;2022-07-29T17:08:00;100810.75;;;33.18;100.00
35647;BME280;28680;45.642;13.756;2022-07-29T17:10:26;100806.63;;;33.05;100.00
35647;BME280;28680;45.642;13.756;2022-07-29T17:12:52;100808.81;;;33.03;100.00
35647;BME280;28680;45.642;13.756;2022-07-29T17:15:18;100818.03;;;33.07;100.00
35647;BME280;28680;45.642;13.756;2022-07-29T17:17:45;100813.72;;;33.11;100.00
35647;BME280;28680;45.642;13.756;2022-07-29T17:20:12;100816.38;;;32.91;100.00
35647;BME280;28680;45.642;13.756;2022-07-29T17:22:41;100819.59;;;32.77;100.00
35647;BME280;28680;45.642;13.756;2022-07-29T17:25:08;100820.69;;;32.81;100.00
35647;BME280;28680;45.642;13.756;2022-07-29T17:27:35;100817.72;;;32.88;100.00
35647;BME280;28680;45.642;13.756;2022-07-29T17:30:02;100823.69;;;32.80;100.00
35647;BME280;28680;45.642;13.756;2022-07-29T17:32:31;100827.63;;;32.52;100.00
35647;BME280;28680;45.642;13.756;2022-07-29T17:35:01;100821.03;;;32.37;100.00
35647;BME280;28680;45.642;13.756;2022-07-29T17:37:27;100823.53;;;32.49;100.00
35647;BME280;28680;45.642;13.756;2022-07-29T17:39:53;100817.50;;;32.37;100.00
35647;BME280;28680;45.642;13.756;2022-07-29T17:42:19;100816.66;;;32.31;100.00
35647;BME280;28680;45.642;13.756;2022-07-29T17:44:45;100817.59;;;32.04;100.00
35647;BME280;28680;45.642;13.756;2022-07-29T17:47:11;100811.53;;;31.97;100.00
35647;BME280;28680;45.642;13.756;2022-07-29T17:49:38;100812.34;;;31.98;100.00
35647;BME280;28680;45.642;13.756;2022-07-29T17:52:04;100808.72;;;31.82;100.00
35647;BME280;28680;45.642;13.756;2022-07-29T17:54:51;100817.63;;;31.77;100.00
35647;BME280;28680;45.642;13.756;2022-07-29T17:57:20;100813.75;;;31.68;100.00
35647;BME280;28680;45.642;13.756;2022-07-29T17:59:46;100815.47;;;31.79;100.00
35647;BME280;28680;45.642;13.756;2022-07-29T18:02:30;100818.25;;;31.52;100.00
35647;BME280;28680;45.642;13.756;2022-07-29T18:04:56;100828.28;;;31.52;100.00
35647;BME280;28680;45.642;13.756;2022-07-29T18:07:22;100832.63;;;31.53;100.00
35647;BME280;28680;45.642;13.756;2022-07-29T18:09:48;100829.09;;;31.52;100.00
35647;BME280;28680;45.642;13.756;2022-07-29T18:12:14;100837.38;;;31.40;100.00
35647;BME280;28680;45.642;13.756;2022-07-29T18:14:40;100837.25;;;31.52;100.00
35647;BME280;28680;45.642;13.756;2022-07-29T18:17:06;100836.75;;;31.60;100.00
35647;BME280;28680;45.642;13.756;2022-07-29T18:19:32;100829.41;;;31.56;100.00
35647;BME280;28680;45.642;13.756;2022-07-29T18:21:58;100840.97;;;31.46;100.00
35647;BME280;28680;45.642;13.756;2022-07-29T18:24:23;100841.28;;;31.50;100.00